sensor_id;sensor_type;location;lat;lon;timestamp;P1;durP1;ratioP1;P2;durP2;ratioP2
52590;SDS011;38483;42.620;25.394;2022-08-21T00:01:10;13.83;;;8.90;;
52590;SDS011;38483;42.620;25.394;2022-08-21T00:04:30;12.90;;;9.30;;
52590;SDS011;38483;42.620;25.394;2022-08-21T00:07:51;11.47;;;9.50;;
52590;SDS011;38483;42.620;25.394;2022-08-21T00:11:13;13.53;;;9.13;;
52590;SDS011;38483;42.620;25.394;2022-08-21T00:14:35;10.60;;;8.73;;
52590;SDS011;38483;42.620;25.394;2022-08-21T00:17:56;12.70;;;8.77;;
52590;SDS011;38483;42.620;25.394;2022-08-21T00:21:16;14.43;;;8.70;;
52590;SDS011;38483;42.620;25.394;2022-08-21T00:24:37;11.67;;;9.90;;
52590;SDS011;38483;42.620;25.394;2022-08-21T00:27:58;16.73;;;9.90;;
52590;SDS011;38483;42.620;25.394;2022-08-21T00:31:19;12.07;;;9.13;;
52590;SDS011;38483;42.620;25.394;2022-08-21T00:34:40;14.27;;;9.10;;
52590;SDS011;38483;42.620;25.394;2022-08-21T00:38:01;13.93;;;9.63;;
52590;SDS011;38483;42.620;25.394;2022-08-21T00:41:21;18.43;;;9.10;;
52590;SDS011;38483;42.620;25.394;2022-08-21T00:44:43;12.73;;;8.73;;
52590;SDS011;38483;42.620;25.394;2022-08-21T00:48:04;16.23;;;9.00;;
52590;SDS011;38483;42.620;25.394;2022-08-21T00:52:10;11.33;;;9.20;;
52590;SDS011;38483;42.620;25.394;2022-08-21T00:54:49;14.70;;;9.03;;
52590;SDS011;38483;42.620;25.394;2022-08-21T00:58:11;12.00;;;8.53;;
52590;SDS011;38483;42.620;25.394;2022-08-21T01:01:34;13.63;;;8.63;;
52590;SDS011;38483;42.620;25.394;2022-08-21T01:04:55;16.37;;;9.00;;
52590;SDS011;38483;42.620;25.394;2022-08-21T01:08:15;13.97;;;9.83;;
52590;SDS011;38483;42.620;25.394;2022-08-21T01:11:36;13.60;;;9.53;;
52590;SDS011;38483;42.620;25.394;2022-08-21T01:14:58;13.27;;;8.97;;
52590;SDS011;38483;42.620;25.394;2022-08-21T01:18:19;10.20;;;8.77;;
52590;SDS011;38483;42.620;25.394;2022-08-21T01:21:40;10.43;;;7.57;;
52590;SDS011;38483;42.620;25.394;2022-08-21T01:25:06;11.33;;;8.23;;
52590;SDS011;38483;42.620;25.394;2022-08-21T01:28:26;12.87;;;8.80;;
52590;SDS011;38483;42.620;25.394;2022-08-21T01:31:53;13.93;;;9.23;;
52590;SDS011;38483;42.620;25.394;2022-08-21T01:35:15;15.43;;;9.27;;
52590;SDS011;38483;42.620;25.394;2022-08-21T01:38:36;15.77;;;9.37;;
52590;SDS011;38483;42.620;25.394;2022-08-21T01:41:57;12.53;;;9.80;;
52590;SDS011;38483;42.620;25.394;2022-08-21T01:45:19;12.93;;;9.77;;
52590;SDS011;38483;42.620;25.394;2022-08-21T01:48:40;15.80;;;10.97;;
52590;SDS011;38483;42.620;25.394;2022-08-21T01:52:00;17.20;;;10.53;;
52590;SDS011;38483;42.620;25.394;2022-08-21T01:55:23;16.30;;;10.13;;
52590;SDS011;38483;42.620;25.394;2022-08-21T01:58:44;16.87;;;9.90;;
52590;SDS011;38483;42.620;25.394;2022-08-21T02:02:05;15.03;;;9.90;;
52590;SDS011;38483;42.620;25.394;2022-08-21T02:05:25;15.13;;;9.50;;
52590;SDS011;38483;42.620;25.394;2022-08-21T02:08:47;15.40;;;9.77;;
52590;SDS011;38483;42.620;25.394;2022-08-21T02:12:10;12.80;;;9.20;;
52590;SDS011;38483;42.620;25.394;2022-08-21T02:15:50;12.90;;;9.67;;
52590;SDS011;38483;42.620;25.394;2022-08-21T02:19:12;13.57;;;9.70;;
52590;SDS011;38483;42.620;25.394;2022-08-21T02:22:32;12.53;;;9.47;;
52590;SDS011;38483;42.620;25.394;2022-08-21T02:26:00;14.37;;;10.73;;
52590;SDS011;38483;42.620;25.394;2022-08-21T02:29:19;14.83;;;9.77;;
52590;SDS011;38483;42.620;25.394;2022-08-21T02:32:40;11.73;;;9.63;;
52590;SDS011;38483;42.620;25.394;2022-08-21T02:36:01;16.30;;;9.87;;
52590;SDS011;38483;42.620;25.394;2022-08-21T02:39:21;14.53;;;8.30;;
52590;SDS011;38483;42.620;25.394;2022-08-21T02:42:45;13.13;;;9.37;;
52590;SDS011;38483;42.620;25.394;2022-08-21T02:46:06;13.73;;;9.10;;
52590;SDS011;38483;42.620;25.394;2022-08-21T02:49:26;15.30;;;10.40;;
52590;SDS011;38483;42.620;25.394;2022-08-21T02:52:48;13.10;;;9.37;;
52590;SDS011;38483;42.620;25.394;2022-08-21T02:56:09;10.60;;;8.00;;
52590;SDS011;38483;42.620;25.394;2022-08-21T02:59:29;12.67;;;8.57;;
52590;SDS011;38483;42.620;25.394;2022-08-21T03:02:51;14.60;;;8.27;;
52590;SDS011;38483;42.620;25.394;2022-08-21T03:06:13;10.27;;;7.60;;
52590;SDS011;38483;42.620;25.394;2022-08-21T03:09:33;10.80;;;7.93;;
52590;SDS011;38483;42.620;25.394;2022-08-21T03:12:54;10.77;;;7.73;;
52590;SDS011;38483;42.620;25.394;2022-08-21T03:16:15;10.77;;;7.93;;
52590;SDS011;38483;42.620;25.394;2022-08-21T03:19:36;11.67;;;7.60;;
52590;SDS011;38483;42.620;25.394;2022-08-21T03:22:58;14.67;;;8.33;;
52590;SDS011;38483;42.620;25.394;2022-08-21T03:26:21;10.90;;;7.43;;
52590;SDS011;38483;42.620;25.394;2022-08-21T03:29:42;10.50;;;7.77;;
52590;SDS011;38483;42.620;25.394;2022-08-21T03:33:03;12.13;;;8.17;;
52590;SDS011;38483;42.620;25.394;2022-08-21T03:36:23;14.80;;;8.40;;
52590;SDS011;38483;42.620;25.394;2022-08-21T03:39:44;13.50;;;8.70;;
52590;SDS011;38483;42.620;25.394;2022-08-21T03:43:05;12.87;;;9.30;;
52590;SDS011;38483;42.620;25.394;2022-08-21T03:46:25;13.97;;;7.93;;
52590;SDS011;38483;42.620;25.394;2022-08-21T03:49:46;11.70;;;7.80;;
52590;SDS011;38483;42.620;25.394;2022-08-21T03:53:08;10.40;;;7.53;;
52590;SDS011;38483;42.620;25.394;2022-08-21T03:56:28;11.67;;;8.30;;
52590;SDS011;38483;42.620;25.394;2022-08-21T03:59:50;13.30;;;9.33;;
52590;SDS011;38483;42.620;25.394;2022-08-21T04:03:11;10.93;;;8.27;;
52590;SDS011;38483;42.620;25.394;2022-08-21T04:06:31;14.23;;;8.83;;
52590;SDS011;38483;42.620;25.394;2022-08-21T04:09:52;14.40;;;8.67;;
52590;SDS011;38483;42.620;25.394;2022-08-21T04:13:13;14.63;;;8.77;;
52590;SDS011;38483;42.620;25.394;2022-08-21T04:16:35;12.60;;;7.53;;
52590;SDS011;38483;42.620;25.394;2022-08-21T04:19:56;12.17;;;6.83;;
52590;SDS011;38483;42.620;25.394;2022-08-21T04:23:20;9.87;;;6.53;;
52590;SDS011;38483;42.620;25.394;2022-08-21T04:26:40;12.13;;;7.30;;
52590;SDS011;38483;42.620;25.394;2022-08-21T04:30:03;9.67;;;6.47;;
52590;SDS011;38483;42.620;25.394;2022-08-21T04:33:23;10.10;;;6.63;;
52590;SDS011;38483;42.620;25.394;2022-08-21T04:36:45;11.63;;;4.93;;
52590;SDS011;38483;42.620;25.394;2022-08-21T04:40:06;12.13;;;5.23;;
52590;SDS011;38483;42.620;25.394;2022-08-21T04:43:27;8.17;;;4.70;;
52590;SDS011;38483;42.620;25.394;2022-08-21T04:46:48;9.10;;;4.63;;
52590;SDS011;38483;42.620;25.394;2022-08-21T04:50:09;9.03;;;4.63;;
52590;SDS011;38483;42.620;25.394;2022-08-21T04:53:42;9.27;;;5.20;;
52590;SDS011;38483;42.620;25.394;2022-08-21T04:56:31;10.73;;;5.17;;
52590;SDS011;38483;42.620;25.394;2022-08-21T04:59:33;10.60;;;5.37;;
52590;SDS011;38483;42.620;25.394;2022-08-21T05:02:53;7.20;;;4.90;;
52590;SDS011;38483;42.620;25.394;2022-08-21T05:06:14;7.00;;;4.43;;
52590;SDS011;38483;42.620;25.394;2022-08-21T05:09:35;8.63;;;5.23;;
52590;SDS011;38483;42.620;25.394;2022-08-21T05:13:00;12.13;;;4.90;;
52590;SDS011;38483;42.620;25.394;2022-08-21T05:16:23;6.07;;;3.60;;
52590;SDS011;38483;42.620;25.394;2022-08-21T05:19:44;10.63;;;4.60;;
52590;SDS011;38483;42.620;25.394;2022-08-21T05:23:09;10.80;;;4.83;;
52590;SDS011;38483;42.620;25.394;2022-08-21T05:26:29;11.53;;;4.67;;
52590;SDS011;38483;42.620;25.394;2022-08-21T05:29:49;8.00;;;4.70;;
52590;SDS011;38483;42.620;25.394;2022-08-21T05:33:10;8.57;;;4.83;;
52590;SDS011;38483;42.620;25.394;2022-08-21T05:36:31;8.93;;;4.30;;
52590;SDS011;38483;42.620;25.394;2022-08-21T05:39:52;6.53;;;4.57;;
52590;SDS011;38483;42.620;25.394;2022-08-21T05:43:15;8.70;;;4.97;;
52590;SDS011;38483;42.620;25.394;2022-08-21T05:46:37;9.77;;;5.20;;
52590;SDS011;38483;42.620;25.394;2022-08-21T05:50:05;8.00;;;5.07;;
52590;SDS011;38483;42.620;25.394;2022-08-21T05:53:26;8.50;;;5.93;;
52590;SDS011;38483;42.620;25.394;2022-08-21T05:56:47;10.33;;;5.73;;
52590;SDS011;38483;42.620;25.394;2022-08-21T06:00:08;9.70;;;5.37;;
52590;SDS011;38483;42.620;25.394;2022-08-21T06:03:30;8.77;;;4.97;;
52590;SDS011;38483;42.620;25.394;2022-08-21T06:06:50;8.80;;;5.17;;
52590;SDS011;38483;42.620;25.394;2022-08-21T06:10:11;7.90;;;5.00;;
52590;SDS011;38483;42.620;25.394;2022-08-21T06:13:32;8.63;;;5.20;;
52590;SDS011;38483;42.620;25.394;2022-08-21T06:16:52;9.87;;;4.40;;
52590;SDS011;38483;42.620;25.394;2022-08-21T06:20:13;9.40;;;4.50;;
52590;SDS011;38483;42.620;25.394;2022-08-21T06:24:00;12.17;;;6.87;;
52590;SDS011;38483;42.620;25.394;2022-08-21T06:27:20;18.87;;;9.70;;
52590;SDS011;38483;42.620;25.394;2022-08-21T06:30:42;10.93;;;7.37;;
52590;SDS011;38483;42.620;25.394;2022-08-21T06:34:03;12.87;;;5.50;;
52590;SDS011;38483;42.620;25.394;2022-08-21T06:37:24;13.43;;;4.70;;
52590;SDS011;38483;42.620;25.394;2022-08-21T06:40:45;13.03;;;6.47;;
52590;SDS011;38483;42.620;25.394;2022-08-21T06:44:07;10.00;;;6.30;;
52590;SDS011;38483;42.620;25.394;2022-08-21T06:47:30;10.80;;;5.77;;
52590;SDS011;38483;42.620;25.394;2022-08-21T06:50:50;16.47;;;6.27;;
52590;SDS011;38483;42.620;25.394;2022-08-21T06:54:12;9.67;;;5.03;;
52590;SDS011;38483;42.620;25.394;2022-08-21T06:57:33;15.43;;;5.30;;
52590;SDS011;38483;42.620;25.394;2022-08-21T07:00:54;6.97;;;4.80;;
52590;SDS011;38483;42.620;25.394;2022-08-21T07:04:17;11.90;;;5.30;;
52590;SDS011;38483;42.620;25.394;2022-08-21T07:07:38;11.07;;;5.73;;
52590;SDS011;38483;42.620;25.394;2022-08-21T07:11:00;11.90;;;5.83;;
52590;SDS011;38483;42.620;25.394;2022-08-21T07:14:22;9.97;;;6.10;;
52590;SDS011;38483;42.620;25.394;2022-08-21T07:17:42;11.77;;;5.17;;
52590;SDS011;38483;42.620;25.394;2022-08-21T07:21:03;10.67;;;6.33;;
52590;SDS011;38483;42.620;25.394;2022-08-21T07:24:23;10.80;;;5.90;;
52590;SDS011;38483;42.620;25.394;2022-08-21T07:27:45;14.97;;;6.23;;
52590;SDS011;38483;42.620;25.394;2022-08-21T07:31:10;10.87;;;5.93;;
52590;SDS011;38483;42.620;25.394;2022-08-21T07:34:29;11.80;;;6.33;;
52590;SDS011;38483;42.620;25.394;2022-08-21T07:37:50;10.67;;;6.63;;
52590;SDS011;38483;42.620;25.394;2022-08-21T07:41:23;10.87;;;6.17;;
52590;SDS011;38483;42.620;25.394;2022-08-21T07:44:40;11.10;;;6.00;;
52590;SDS011;38483;42.620;25.394;2022-08-21T07:48:01;9.03;;;6.33;;
52590;SDS011;38483;42.620;25.394;2022-08-21T07:51:25;12.43;;;6.70;;
52590;SDS011;38483;42.620;25.394;2022-08-21T07:54:43;11.57;;;6.03;;
52590;SDS011;38483;42.620;25.394;2022-08-21T07:58:03;8.63;;;6.07;;
52590;SDS011;38483;42.620;25.394;2022-08-21T08:00:31;8.40;;;6.20;;
52590;SDS011;38483;42.620;25.394;2022-08-21T08:02:59;8.70;;;6.37;;
52590;SDS011;38483;42.620;25.394;2022-08-21T08:05:27;8.63;;;5.93;;
52590;SDS011;38483;42.620;25.394;2022-08-21T08:07:57;10.27;;;6.23;;
52590;SDS011;38483;42.620;25.394;2022-08-21T08:10:26;9.37;;;6.23;;
52590;SDS011;38483;42.620;25.394;2022-08-21T08:12:56;9.93;;;7.27;;
52590;SDS011;38483;42.620;25.394;2022-08-21T08:15:27;9.60;;;6.03;;
52590;SDS011;38483;42.620;25.394;2022-08-21T08:17:55;9.67;;;6.40;;
52590;SDS011;38483;42.620;25.394;2022-08-21T08:20:24;13.63;;;7.60;;
52590;SDS011;38483;42.620;25.394;2022-08-21T08:22:56;14.50;;;7.00;;
52590;SDS011;38483;42.620;25.394;2022-08-21T08:25:27;13.67;;;8.60;;
52590;SDS011;38483;42.620;25.394;2022-08-21T08:28:05;14.83;;;8.70;;
52590;SDS011;38483;42.620;25.394;2022-08-21T08:30:46;16.57;;;8.07;;
52590;SDS011;38483;42.620;25.394;2022-08-21T08:33:14;15.87;;;6.87;;
52590;SDS011;38483;42.620;25.394;2022-08-21T08:35:42;15.10;;;7.60;;
52590;SDS011;38483;42.620;25.394;2022-08-21T08:38:16;12.17;;;7.30;;
52590;SDS011;38483;42.620;25.394;2022-08-21T08:43:39;15.30;;;7.93;;
52590;SDS011;38483;42.620;25.394;2022-08-21T08:46:11;13.07;;;7.30;;
52590;SDS011;38483;42.620;25.394;2022-08-21T08:48:58;12.83;;;7.27;;
52590;SDS011;38483;42.620;25.394;2022-08-21T08:51:45;17.37;;;8.37;;
52590;SDS011;38483;42.620;25.394;2022-08-21T08:54:28;10.70;;;7.70;;
52590;SDS011;38483;42.620;25.394;2022-08-21T08:57:00;11.97;;;9.13;;
52590;SDS011;38483;42.620;25.394;2022-08-21T08:59:36;12.87;;;10.10;;
52590;SDS011;38483;42.620;25.394;2022-08-21T09:02:10;11.87;;;8.20;;
52590;SDS011;38483;42.620;25.394;2022-08-21T09:04:44;16.13;;;10.43;;
52590;SDS011;38483;42.620;25.394;2022-08-21T09:12:59;10.03;;;8.07;;
52590;SDS011;38483;42.620;25.394;2022-08-21T09:21:23;13.50;;;9.17;;
52590;SDS011;38483;42.620;25.394;2022-08-21T09:24:29;10.30;;;8.47;;
52590;SDS011;38483;42.620;25.394;2022-08-21T09:27:18;12.17;;;8.97;;
52590;SDS011;38483;42.620;25.394;2022-08-21T09:29:50;12.90;;;9.07;;
52590;SDS011;38483;42.620;25.394;2022-08-21T09:32:25;13.03;;;8.10;;
52590;SDS011;38483;42.620;25.394;2022-08-21T09:35:16;12.03;;;8.30;;
52590;SDS011;38483;42.620;25.394;2022-08-21T09:43:01;13.30;;;8.03;;
52590;SDS011;38483;42.620;25.394;2022-08-21T09:46:21;10.10;;;7.90;;
52590;SDS011;38483;42.620;25.394;2022-08-21T09:49:42;9.43;;;7.67;;
52590;SDS011;38483;42.620;25.394;2022-08-21T09:53:16;10.43;;;7.37;;
52590;SDS011;38483;42.620;25.394;2022-08-21T09:56:37;9.63;;;6.90;;
52590;SDS011;38483;42.620;25.394;2022-08-21T10:03:10;11.40;;;7.30;;
52590;SDS011;38483;42.620;25.394;2022-08-21T10:05:55;10.37;;;7.67;;
52590;SDS011;38483;42.620;25.394;2022-08-21T10:08:26;10.87;;;7.10;;
52590;SDS011;38483;42.620;25.394;2022-08-21T10:11:04;9.97;;;6.53;;
52590;SDS011;38483;42.620;25.394;2022-08-21T10:22:40;10.20;;;7.33;;
52590;SDS011;38483;42.620;25.394;2022-08-21T10:27:55;12.07;;;6.80;;
52590;SDS011;38483;42.620;25.394;2022-08-21T10:47:44;13.43;;;6.80;;
52590;SDS011;38483;42.620;25.394;2022-08-21T10:50:25;11.33;;;6.23;;
52590;SDS011;38483;42.620;25.394;2022-08-21T10:56:02;15.97;;;6.70;;
52590;SDS011;38483;42.620;25.394;2022-08-21T10:58:48;15.77;;;6.37;;
52590;SDS011;38483;42.620;25.394;2022-08-21T11:01:27;15.77;;;6.67;;
52590;SDS011;38483;42.620;25.394;2022-08-21T11:04:07;7.30;;;5.70;;
52590;SDS011;38483;42.620;25.394;2022-08-21T11:06:41;14.40;;;6.50;;
52590;SDS011;38483;42.620;25.394;2022-08-21T11:09:17;9.67;;;5.90;;
52590;SDS011;38483;42.620;25.394;2022-08-21T11:11:54;8.70;;;5.70;;
52590;SDS011;38483;42.620;25.394;2022-08-21T11:14:57;12.77;;;6.40;;
52590;SDS011;38483;42.620;25.394;2022-08-21T11:17:34;11.10;;;5.60;;
52590;SDS011;38483;42.620;25.394;2022-08-21T11:20:10;13.97;;;5.90;;
52590;SDS011;38483;42.620;25.394;2022-08-21T11:22:48;9.30;;;6.00;;
52590;SDS011;38483;42.620;25.394;2022-08-21T11:28:08;13.90;;;7.27;;
52590;SDS011;38483;42.620;25.394;2022-08-21T11:30:47;15.73;;;8.03;;
52590;SDS011;38483;42.620;25.394;2022-08-21T11:36:07;12.10;;;6.50;;
52590;SDS011;38483;42.620;25.394;2022-08-21T11:39:12;8.03;;;6.13;;
52590;SDS011;38483;42.620;25.394;2022-08-21T11:44:55;10.07;;;5.60;;
52590;SDS011;38483;42.620;25.394;2022-08-21T11:47:37;8.20;;;4.77;;
52590;SDS011;38483;42.620;25.394;2022-08-21T11:50:27;7.13;;;5.53;;
52590;SDS011;38483;42.620;25.394;2022-08-21T11:53:11;11.40;;;5.47;;
52590;SDS011;38483;42.620;25.394;2022-08-21T11:56:14;11.60;;;5.27;;
52590;SDS011;38483;42.620;25.394;2022-08-21T11:59:11;5.87;;;4.93;;
52590;SDS011;38483;42.620;25.394;2022-08-21T12:01:45;6.40;;;4.87;;
52590;SDS011;38483;42.620;25.394;2022-08-21T12:04:26;6.20;;;4.47;;
52590;SDS011;38483;42.620;25.394;2022-08-21T12:07:11;6.63;;;4.60;;
52590;SDS011;38483;42.620;25.394;2022-08-21T12:09:51;13.33;;;4.67;;
52590;SDS011;38483;42.620;25.394;2022-08-21T12:17:52;6.37;;;4.23;;
52590;SDS011;38483;42.620;25.394;2022-08-21T12:20:33;8.27;;;4.93;;
52590;SDS011;38483;42.620;25.394;2022-08-21T12:25:39;8.60;;;4.90;;
52590;SDS011;38483;42.620;25.394;2022-08-21T12:28:31;5.33;;;4.60;;
52590;SDS011;38483;42.620;25.394;2022-08-21T12:30:58;6.40;;;4.50;;
52590;SDS011;38483;42.620;25.394;2022-08-21T12:39:15;7.73;;;4.77;;
52590;SDS011;38483;42.620;25.394;2022-08-21T12:42:00;6.07;;;4.60;;
52590;SDS011;38483;42.620;25.394;2022-08-21T12:44:35;6.60;;;4.97;;
52590;SDS011;38483;42.620;25.394;2022-08-21T12:47:55;7.37;;;5.67;;
52590;SDS011;38483;42.620;25.394;2022-08-21T12:50:26;8.87;;;5.60;;
52590;SDS011;38483;42.620;25.394;2022-08-21T12:53:10;7.07;;;4.73;;
52590;SDS011;38483;42.620;25.394;2022-08-21T12:55:47;7.97;;;4.47;;
52590;SDS011;38483;42.620;25.394;2022-08-21T12:58:19;8.10;;;3.93;;
52590;SDS011;38483;42.620;25.394;2022-08-21T13:03:30;6.43;;;4.43;;
52590;SDS011;38483;42.620;25.394;2022-08-21T13:06:03;5.63;;;4.03;;
52590;SDS011;38483;42.620;25.394;2022-08-21T13:08:32;8.77;;;4.43;;
52590;SDS011;38483;42.620;25.394;2022-08-21T13:11:13;11.50;;;4.60;;
52590;SDS011;38483;42.620;25.394;2022-08-21T13:13:58;7.70;;;4.50;;
52590;SDS011;38483;42.620;25.394;2022-08-21T13:16:31;5.60;;;4.10;;
52590;SDS011;38483;42.620;25.394;2022-08-21T13:19:03;5.20;;;3.87;;
52590;SDS011;38483;42.620;25.394;2022-08-21T13:21:39;6.77;;;4.27;;
52590;SDS011;38483;42.620;25.394;2022-08-21T13:27:17;6.83;;;4.63;;
52590;SDS011;38483;42.620;25.394;2022-08-21T13:29:47;5.13;;;4.30;;
52590;SDS011;38483;42.620;25.394;2022-08-21T13:32:29;7.10;;;4.77;;
52590;SDS011;38483;42.620;25.394;2022-08-21T13:34:58;5.30;;;4.80;;
52590;SDS011;38483;42.620;25.394;2022-08-21T13:37:34;7.77;;;4.83;;
52590;SDS011;38483;42.620;25.394;2022-08-21T13:40:02;8.63;;;4.77;;
52590;SDS011;38483;42.620;25.394;2022-08-21T13:42:33;7.50;;;5.13;;
52590;SDS011;38483;42.620;25.394;2022-08-21T13:45:01;7.50;;;5.10;;
52590;SDS011;38483;42.620;25.394;2022-08-21T13:47:29;9.40;;;5.07;;
52590;SDS011;38483;42.620;25.394;2022-08-21T13:49:58;6.13;;;4.30;;
52590;SDS011;38483;42.620;25.394;2022-08-21T13:52:26;6.90;;;4.50;;
52590;SDS011;38483;42.620;25.394;2022-08-21T13:55:07;5.60;;;4.63;;
52590;SDS011;38483;42.620;25.394;2022-08-21T13:57:38;7.80;;;5.27;;
52590;SDS011;38483;42.620;25.394;2022-08-21T14:02:51;7.27;;;4.80;;
52590;SDS011;38483;42.620;25.394;2022-08-21T14:07:55;5.77;;;4.50;;
52590;SDS011;38483;42.620;25.394;2022-08-21T14:10:29;5.87;;;4.40;;
52590;SDS011;38483;42.620;25.394;2022-08-21T14:13:06;9.80;;;5.03;;
52590;SDS011;38483;42.620;25.394;2022-08-21T14:15:34;6.07;;;5.37;;
52590;SDS011;38483;42.620;25.394;2022-08-21T14:18:13;5.50;;;4.47;;
52590;SDS011;38483;42.620;25.394;2022-08-21T14:20:42;9.60;;;5.50;;
52590;SDS011;38483;42.620;25.394;2022-08-21T14:23:11;8.97;;;5.70;;
52590;SDS011;38483;42.620;25.394;2022-08-21T14:25:41;7.33;;;5.40;;
52590;SDS011;38483;42.620;25.394;2022-08-21T14:28:15;7.87;;;5.07;;
52590;SDS011;38483;42.620;25.394;2022-08-21T14:30:52;6.27;;;4.97;;
52590;SDS011;38483;42.620;25.394;2022-08-21T14:33:25;7.93;;;4.93;;
52590;SDS011;38483;42.620;25.394;2022-08-21T14:35:57;7.77;;;5.40;;
52590;SDS011;38483;42.620;25.394;2022-08-21T14:38:28;8.33;;;5.33;;
52590;SDS011;38483;42.620;25.394;2022-08-21T14:40:59;8.20;;;5.50;;
52590;SDS011;38483;42.620;25.394;2022-08-21T14:43:32;8.53;;;5.53;;
52590;SDS011;38483;42.620;25.394;2022-08-21T14:45:59;7.87;;;5.50;;
52590;SDS011;38483;42.620;25.394;2022-08-21T14:48:27;7.87;;;5.67;;
52590;SDS011;38483;42.620;25.394;2022-08-21T14:50:54;8.60;;;6.77;;
52590;SDS011;38483;42.620;25.394;2022-08-21T14:53:26;8.53;;;5.80;;
52590;SDS011;38483;42.620;25.394;2022-08-21T14:56:18;8.00;;;6.57;;
52590;SDS011;38483;42.620;25.394;2022-08-21T14:58:47;9.40;;;6.13;;
52590;SDS011;38483;42.620;25.394;2022-08-21T15:01:16;7.93;;;6.10;;
52590;SDS011;38483;42.620;25.394;2022-08-21T15:03:45;8.47;;;6.00;;
52590;SDS011;38483;42.620;25.394;2022-08-21T15:06:18;8.03;;;6.67;;
52590;SDS011;38483;42.620;25.394;2022-08-21T15:08:47;8.10;;;5.90;;
52590;SDS011;38483;42.620;25.394;2022-08-21T15:11:16;9.47;;;6.87;;
52590;SDS011;38483;42.620;25.394;2022-08-21T15:14:07;9.90;;;6.67;;
52590;SDS011;38483;42.620;25.394;2022-08-21T15:16:39;11.00;;;6.10;;
52590;SDS011;38483;42.620;25.394;2022-08-21T15:19:06;8.17;;;6.10;;
52590;SDS011;38483;42.620;25.394;2022-08-21T15:21:33;8.60;;;6.20;;
52590;SDS011;38483;42.620;25.394;2022-08-21T15:24:04;8.40;;;6.57;;
52590;SDS011;38483;42.620;25.394;2022-08-21T15:26:31;19.13;;;8.47;;
52590;SDS011;38483;42.620;25.394;2022-08-21T15:28:58;10.23;;;6.10;;
52590;SDS011;38483;42.620;25.394;2022-08-21T15:31:33;18.10;;;7.97;;
52590;SDS011;38483;42.620;25.394;2022-08-21T15:34:01;11.73;;;7.30;;
52590;SDS011;38483;42.620;25.394;2022-08-21T15:36:29;13.40;;;7.90;;
52590;SDS011;38483;42.620;25.394;2022-08-21T15:38:56;10.73;;;7.30;;
52590;SDS011;38483;42.620;25.394;2022-08-21T15:41:26;13.03;;;7.63;;
52590;SDS011;38483;42.620;25.394;2022-08-21T15:43:53;12.07;;;8.03;;
52590;SDS011;38483;42.620;25.394;2022-08-21T15:46:24;11.00;;;7.87;;
52590;SDS011;38483;42.620;25.394;2022-08-21T15:48:52;12.17;;;7.57;;
52590;SDS011;38483;42.620;25.394;2022-08-21T15:51:25;10.80;;;7.80;;
52590;SDS011;38483;42.620;25.394;2022-08-21T15:53:52;12.20;;;7.10;;
52590;SDS011;38483;42.620;25.394;2022-08-21T15:56:22;13.67;;;7.37;;
52590;SDS011;38483;42.620;25.394;2022-08-21T15:58:52;12.63;;;7.20;;
52590;SDS011;38483;42.620;25.394;2022-08-21T16:01:28;9.53;;;7.23;;
52590;SDS011;38483;42.620;25.394;2022-08-21T16:04:10;10.83;;;8.10;;
52590;SDS011;38483;42.620;25.394;2022-08-21T16:06:42;11.97;;;8.13;;
52590;SDS011;38483;42.620;25.394;2022-08-21T16:09:21;10.10;;;8.07;;
52590;SDS011;38483;42.620;25.394;2022-08-21T16:11:48;12.23;;;7.87;;
52590;SDS011;38483;42.620;25.394;2022-08-21T16:14:22;13.03;;;8.63;;
52590;SDS011;38483;42.620;25.394;2022-08-21T16:16:49;10.80;;;7.87;;
52590;SDS011;38483;42.620;25.394;2022-08-21T16:19:19;9.90;;;7.33;;
52590;SDS011;38483;42.620;25.394;2022-08-21T16:21:47;10.63;;;8.03;;
52590;SDS011;38483;42.620;25.394;2022-08-21T16:24:16;11.30;;;8.07;;
52590;SDS011;38483;42.620;25.394;2022-08-21T16:26:43;14.67;;;8.33;;
52590;SDS011;38483;42.620;25.394;2022-08-21T16:29:10;10.97;;;8.13;;
52590;SDS011;38483;42.620;25.394;2022-08-21T16:31:37;10.90;;;7.87;;
52590;SDS011;38483;42.620;25.394;2022-08-21T16:34:05;14.10;;;9.10;;
52590;SDS011;38483;42.620;25.394;2022-08-21T16:36:32;16.23;;;8.17;;
52590;SDS011;38483;42.620;25.394;2022-08-21T16:39:00;12.90;;;8.33;;
52590;SDS011;38483;42.620;25.394;2022-08-21T16:41:32;14.07;;;9.13;;
52590;SDS011;38483;42.620;25.394;2022-08-21T16:44:01;12.10;;;8.87;;
52590;SDS011;38483;42.620;25.394;2022-08-21T16:46:30;16.37;;;8.93;;
52590;SDS011;38483;42.620;25.394;2022-08-21T16:49:02;10.03;;;8.37;;
52590;SDS011;38483;42.620;25.394;2022-08-21T16:51:30;12.43;;;8.87;;
52590;SDS011;38483;42.620;25.394;2022-08-21T16:53:58;11.60;;;9.33;;
52590;SDS011;38483;42.620;25.394;2022-08-21T16:56:26;12.83;;;8.90;;
52590;SDS011;38483;42.620;25.394;2022-08-21T16:58:56;12.63;;;9.03;;
52590;SDS011;38483;42.620;25.394;2022-08-21T17:01:28;11.73;;;9.13;;
52590;SDS011;38483;42.620;25.394;2022-08-21T17:03:57;10.50;;;8.30;;
52590;SDS011;38483;42.620;25.394;2022-08-21T17:06:27;15.53;;;8.87;;
52590;SDS011;38483;42.620;25.394;2022-08-21T17:08:56;11.87;;;9.40;;
52590;SDS011;38483;42.620;25.394;2022-08-21T17:11:28;12.20;;;9.80;;
52590;SDS011;38483;42.620;25.394;2022-08-21T17:14:04;14.20;;;8.87;;
52590;SDS011;38483;42.620;25.394;2022-08-21T17:16:35;10.53;;;8.77;;
52590;SDS011;38483;42.620;25.394;2022-08-21T17:19:04;10.07;;;9.00;;
52590;SDS011;38483;42.620;25.394;2022-08-21T17:21:33;12.80;;;8.63;;
52590;SDS011;38483;42.620;25.394;2022-08-21T17:24:01;13.40;;;8.30;;
52590;SDS011;38483;42.620;25.394;2022-08-21T17:26:29;11.47;;;9.10;;
52590;SDS011;38483;42.620;25.394;2022-08-21T17:28:56;13.13;;;9.57;;
52590;SDS011;38483;42.620;25.394;2022-08-21T17:31:24;15.47;;;10.43;;
52590;SDS011;38483;42.620;25.394;2022-08-21T17:33:54;16.47;;;9.13;;
52590;SDS011;38483;42.620;25.394;2022-08-21T17:36:23;15.63;;;9.70;;
52590;SDS011;38483;42.620;25.394;2022-08-21T17:38:51;14.10;;;9.43;;
52590;SDS011;38483;42.620;25.394;2022-08-21T17:41:19;17.20;;;11.70;;
52590;SDS011;38483;42.620;25.394;2022-08-21T17:43:48;17.63;;;10.57;;
52590;SDS011;38483;42.620;25.394;2022-08-21T17:46:19;17.37;;;9.90;;
52590;SDS011;38483;42.620;25.394;2022-08-21T17:48:50;17.83;;;9.83;;
52590;SDS011;38483;42.620;25.394;2022-08-21T17:51:17;13.93;;;10.93;;
52590;SDS011;38483;42.620;25.394;2022-08-21T17:53:46;14.23;;;9.87;;
52590;SDS011;38483;42.620;25.394;2022-08-21T17:56:14;13.87;;;10.07;;
52590;SDS011;38483;42.620;25.394;2022-08-21T17:58:48;14.47;;;10.13;;
52590;SDS011;38483;42.620;25.394;2022-08-21T18:01:16;16.07;;;10.00;;
52590;SDS011;38483;42.620;25.394;2022-08-21T18:03:46;13.93;;;9.60;;
52590;SDS011;38483;42.620;25.394;2022-08-21T18:06:15;12.57;;;9.00;;
52590;SDS011;38483;42.620;25.394;2022-08-21T18:08:45;13.27;;;9.27;;
52590;SDS011;38483;42.620;25.394;2022-08-21T18:11:15;25.57;;;23.13;;
52590;SDS011;38483;42.620;25.394;2022-08-21T18:13:49;16.33;;;12.40;;
52590;SDS011;38483;42.620;25.394;2022-08-21T18:16:18;16.37;;;11.33;;
52590;SDS011;38483;42.620;25.394;2022-08-21T18:18:46;13.77;;;10.33;;
52590;SDS011;38483;42.620;25.394;2022-08-21T18:21:15;13.17;;;10.57;;
52590;SDS011;38483;42.620;25.394;2022-08-21T18:23:42;15.50;;;12.03;;
52590;SDS011;38483;42.620;25.394;2022-08-21T18:26:12;13.97;;;11.00;;
52590;SDS011;38483;42.620;25.394;2022-08-21T18:28:45;14.03;;;11.30;;